createdAt,value
2019-02-19T00:00:51.103Z,95696.72
2019-02-19T00:03:20.850Z,95700.77
2019-02-19T00:05:50.315Z,95701.38
2019-02-19T00:08:20.074Z,95698.66
2019-02-19T00:10:49.517Z,95694.82
2019-02-19T00:13:19.306Z,95701.38
2019-02-19T00:15:49.107Z,95695.13
2019-02-19T00:18:18.618Z,95698.68
2019-02-19T00:20:50.715Z,95692.25
2019-02-19T00:23:20.175Z,95694.49
2019-02-19T00:25:49.861Z,95691.28
2019-02-19T00:28:19.429Z,95688.40
2019-02-19T00:30:49.119Z,95690.15
2019-02-19T00:33:18.776Z,95690.80
2019-02-19T00:35:48.456Z,95689.03
2019-02-19T00:38:18.186Z,95690.95
2019-02-19T00:40:47.837Z,95684.55
2019-02-19T00:43:17.479Z,95686.78
2019-02-19T00:45:47.222Z,95681.32
2019-02-19T00:48:16.857Z,95688.72
2019-02-19T00:50:46.501Z,95683.07
2019-02-19T00:53:16.203Z,95684.04
2019-02-19T00:55:45.665Z,95686.73
2019-02-19T00:58:15.452Z,95683.21
2019-02-19T01:00:45.212Z,95679.52
2019-02-19T01:03:14.959Z,95689.02
2019-02-19T01:05:44.871Z,95678.20
2019-02-19T01:08:14.612Z,95675.46
2019-02-19T01:10:44.234Z,95679.95
2019-02-19T01:13:13.888Z,95680.10
2019-02-19T01:15:43.671Z,95674.94
2019-02-19T01:18:13.403Z,95669.66
2019-02-19T01:20:43.137Z,95669.96
2019-02-19T01:23:12.849Z,95666.26
2019-02-19T01:25:42.591Z,95665.61
2019-02-19T01:28:12.167Z,95665.45
2019-02-19T01:30:41.801Z,95659.05
2019-02-19T01:33:13.309Z,95661.28
2019-02-19T01:35:43.007Z,95658.86
2019-02-19T01:38:12.721Z,95666.38
2019-02-19T01:40:42.476Z,95652.25
2019-02-19T01:43:12.020Z,95652.25
2019-02-19T01:45:41.918Z,95650.97
2019-02-19T01:48:11.560Z,95650.01
2019-02-19T01:50:41.218Z,95643.92
2019-02-19T01:53:11.119Z,95642.28
2019-02-19T01:55:40.847Z,95642.28
2019-02-19T01:58:10.574Z,95638.55
2019-02-19T02:00:40.199Z,95633.58
2019-02-19T02:03:09.841Z,95642.91
2019-02-19T02:05:39.532Z,95637.12
2019-02-19T02:08:09.244Z,95632.03
2019-02-19T02:10:39.818Z,95638.44
2019-02-19T02:13:09.437Z,95635.88
2019-02-19T02:15:42.685Z,95632.03
2019-02-19T02:18:10.388Z,95632.53
2019-02-19T02:20:41.043Z,95631.45
2019-02-19T02:23:10.763Z,95630.47
2019-02-19T02:25:40.443Z,95633.19
2019-02-19T02:28:09.956Z,95629.16
2019-02-19T02:30:39.651Z,95631.72
2019-02-19T02:33:09.406Z,95628.20
2019-02-19T02:35:39.090Z,95630.14
2019-02-19T02:38:08.865Z,95633.99
2019-02-19T02:40:38.638Z,95633.03
2019-02-19T02:43:08.066Z,95630.56
2019-02-19T02:45:37.809Z,95630.56
2019-02-19T02:48:07.533Z,95631.70
2019-02-19T02:50:37.149Z,95631.70
2019-02-19T02:53:06.935Z,95637.30
2019-02-19T02:55:36.641Z,95640.64
2019-02-19T02:58:06.278Z,95627.49
2019-02-19T03:00:36.058Z,95635.19
2019-02-19T03:03:05.938Z,95634.34
2019-02-19T03:05:37.502Z,95629.80
2019-02-19T03:08:07.576Z,95624.20
2019-02-19T03:10:37.210Z,95634.41
2019-02-19T03:13:06.930Z,95634.41
2019-02-19T03:15:36.681Z,95628.63
2019-02-19T03:18:06.409Z,95629.20
2019-02-19T03:20:36.132Z,95629.52
2019-02-19T03:23:05.697Z,95629.52
2019-02-19T03:25:35.332Z,95628.96
2019-02-19T03:28:05.039Z,95628.96
2019-02-19T03:30:34.815Z,95638.59
2019-02-19T03:33:04.518Z,95632.65
2019-02-19T03:35:34.023Z,95632.65
2019-02-19T03:38:03.703Z,95637.44
2019-02-19T03:40:33.550Z,95636.63
2019-02-19T03:43:03.003Z,95635.45
2019-02-19T03:45:32.619Z,95634.77
2019-02-19T03:48:02.304Z,95628.33
2019-02-19T03:50:32.009Z,95628.33
2019-02-19T03:53:01.809Z,95634.06
2019-02-19T03:55:31.826Z,95636.09
2019-02-19T03:58:01.687Z,95636.09
2019-02-19T04:00:31.526Z,95633.91
2019-02-19T04:03:01.225Z,95621.86
2019-02-19T04:05:31.201Z,95634.34
2019-02-19T04:08:00.873Z,95630.34
2019-02-19T04:10:30.511Z,95628.11
2019-02-19T04:13:01.092Z,95633.72
2019-02-19T04:15:32.871Z,95635.99
2019-02-19T04:18:02.142Z,95628.27
2019-02-19T04:20:32.825Z,95637.42
2019-02-19T04:23:03.952Z,95637.42
2019-02-19T04:25:33.839Z,95629.22
2019-02-19T04:28:06.383Z,95632.72
2019-02-19T04:30:36.169Z,95630.89
2019-02-19T04:33:06.031Z,95639.99
2019-02-19T04:35:36.581Z,95637.61
2019-02-19T04:38:06.243Z,95639.84
2019-02-19T04:40:35.872Z,95641.34
2019-02-19T04:43:07.497Z,95640.25
2019-02-19T04:45:38.192Z,95638.78
2019-02-19T04:48:08.040Z,95638.78
2019-02-19T04:50:37.798Z,95634.55
2019-02-19T04:53:07.469Z,95645.71
2019-02-19T04:55:37.123Z,95645.71
2019-02-19T04:58:06.739Z,95642.20
2019-02-19T05:00:36.654Z,95638.71
2019-02-19T05:03:06.236Z,95644.62
2019-02-19T05:05:35.960Z,95644.14
2019-02-19T05:08:05.554Z,95641.87
2019-02-19T05:10:35.600Z,95642.16
2019-02-19T05:13:05.353Z,95642.16
2019-02-19T05:15:35.140Z,95648.46
2019-02-19T05:18:04.808Z,95648.19
2019-02-19T05:20:34.483Z,95648.19
2019-02-19T05:23:04.224Z,95640.92
2019-02-19T05:25:34.098Z,95628.08
2019-02-19T05:28:03.866Z,95651.84
2019-02-19T05:30:33.498Z,95652.31
2019-02-19T05:33:03.173Z,95652.31
2019-02-19T05:35:32.745Z,95660.05
2019-02-19T05:38:02.419Z,95666.19
2019-02-19T05:40:31.927Z,95666.19
2019-02-19T05:43:01.669Z,95674.36
2019-02-19T05:45:31.242Z,95674.36
2019-02-19T05:48:00.967Z,95686.81
2019-02-19T05:50:30.673Z,95686.81
2019-02-19T05:53:03.712Z,95696.31
2019-02-19T05:55:33.313Z,95696.31
2019-02-19T05:58:07.703Z,95690.59
2019-02-19T06:00:37.416Z,95690.59
2019-02-19T06:03:07.136Z,95695.35
2019-02-19T06:05:36.861Z,95695.47
2019-02-19T06:08:06.505Z,95695.47
2019-02-19T06:10:36.136Z,95696.05
2019-02-19T06:13:05.713Z,95701.39
2019-02-19T06:15:35.396Z,95704.00
2019-02-19T06:18:04.857Z,95707.75
2019-02-19T06:20:34.487Z,95704.94
2019-02-19T06:23:04.259Z,95703.25
2019-02-19T06:25:33.999Z,95704.42
2019-02-19T06:28:03.712Z,95711.70
2019-02-19T06:30:34.463Z,95702.59
2019-02-19T06:33:04.177Z,95706.03
2019-02-19T06:35:33.807Z,95697.72
2019-02-19T06:38:03.710Z,95696.29
2019-02-19T06:40:33.256Z,95693.02
2019-02-19T06:43:03.002Z,95695.77
2019-02-19T06:45:32.468Z,95688.13
2019-02-19T06:48:01.998Z,95692.40
2019-02-19T06:50:31.740Z,95688.84
2019-02-19T06:53:01.386Z,95689.26
2019-02-19T06:55:31.043Z,95691.99
2019-02-19T06:58:00.718Z,95688.18
2019-02-19T07:00:30.459Z,95687.55
2019-02-19T07:03:19.012Z,95693.67
2019-02-19T07:05:48.640Z,95688.38
2019-02-19T07:08:18.241Z,95693.39
2019-02-19T07:10:48.016Z,95685.22
2019-02-19T07:13:17.695Z,95687.17
2019-02-19T07:15:47.352Z,95687.41
2019-02-19T07:18:18.979Z,95686.94
2019-02-19T07:20:48.759Z,95683.88
2019-02-19T07:23:18.225Z,95687.64
2019-02-19T07:25:48.001Z,95685.73
2019-02-19T07:28:17.588Z,95691.24
2019-02-19T07:30:47.310Z,95689.27
2019-02-19T07:33:17.095Z,95692.89
2019-02-19T07:35:46.703Z,95689.50
2019-02-19T07:38:16.302Z,95694.64
2019-02-19T07:40:45.908Z,95694.56
2019-02-19T07:43:15.529Z,95685.69
2019-02-19T07:45:45.158Z,95680.86
2019-02-19T07:48:14.843Z,95687.80
2019-02-19T07:50:44.518Z,95688.03
2019-02-19T07:53:14.177Z,95693.38
2019-02-19T07:55:43.782Z,95692.30
2019-02-19T07:58:13.521Z,95692.95
2019-02-19T08:00:43.334Z,95693.33
2019-02-19T08:03:13.078Z,95686.88
2019-02-19T08:05:42.752Z,95688.27
2019-02-19T08:08:12.335Z,95687.37
2019-02-19T08:10:41.991Z,95681.63
2019-02-19T08:13:11.648Z,95687.25
2019-02-19T08:15:41.414Z,95679.38
2019-02-19T08:18:11.009Z,95675.92
2019-02-19T08:20:40.669Z,95675.24
2019-02-19T08:23:10.405Z,95673.31
2019-02-19T08:25:39.914Z,95674.86
2019-02-19T08:28:09.579Z,95673.55
2019-02-19T08:30:39.200Z,95670.75
2019-02-19T08:33:09.053Z,95679.99
2019-02-19T08:35:38.729Z,95684.56
2019-02-19T08:38:08.199Z,95680.63
2019-02-19T08:40:37.986Z,95679.69
2019-02-19T08:43:07.547Z,95681.13
2019-02-19T08:45:37.117Z,95681.03
2019-02-19T08:48:06.595Z,95679.44
2019-02-19T08:50:36.375Z,95677.00
2019-02-19T08:53:05.883Z,95680.28
2019-02-19T08:55:35.630Z,95669.61
2019-02-19T08:58:05.302Z,95671.70
2019-02-19T09:00:34.926Z,95673.52
2019-02-19T09:03:04.790Z,95670.45
2019-02-19T09:05:34.346Z,95672.13
2019-02-19T09:08:04.208Z,95669.89
2019-02-19T09:10:33.882Z,95671.34
2019-02-19T09:13:03.474Z,95670.78
2019-02-19T09:15:33.123Z,95668.05
2019-02-19T09:18:02.718Z,95663.63
2019-02-19T09:20:32.325Z,95658.91
2019-02-19T09:23:02.008Z,95651.51
2019-02-19T09:25:31.617Z,95655.25
2019-02-19T09:28:01.351Z,95660.73
2019-02-19T09:30:31.022Z,95658.00
2019-02-19T09:33:00.867Z,95657.77
2019-02-19T09:35:31.820Z,95653.00
2019-02-19T09:38:01.538Z,95649.98
2019-02-19T09:40:31.244Z,95652.86
2019-02-19T09:43:00.899Z,95652.04
2019-02-19T09:45:30.522Z,95643.34
2019-02-19T09:48:01.425Z,95641.26
2019-02-19T09:50:31.525Z,95639.33
2019-02-19T09:53:01.383Z,95637.22
2019-02-19T09:55:31.082Z,95626.82
2019-02-19T09:58:00.842Z,95629.82
2019-02-19T10:00:30.372Z,95621.80
2019-02-19T10:02:59.993Z,95615.72
2019-02-19T10:05:29.610Z,95612.73
2019-02-19T10:07:59.293Z,95601.64
2019-02-19T10:10:29.023Z,95602.95
2019-02-19T10:12:58.783Z,95596.22
2019-02-19T10:15:28.456Z,95588.23
2019-02-19T10:17:58.354Z,95592.42
2019-02-19T10:20:28.021Z,95582.64
2019-02-19T10:22:57.646Z,95582.05
2019-02-19T10:25:27.308Z,95578.92
2019-02-19T10:27:57.009Z,95577.45
2019-02-19T10:30:26.890Z,95570.31
2019-02-19T10:32:56.490Z,95566.75
2019-02-19T10:35:26.111Z,95562.64
2019-02-19T10:37:55.644Z,95562.17
2019-02-19T10:40:25.180Z,95557.20
2019-02-19T10:42:54.699Z,95556.83
2019-02-19T10:45:24.536Z,95549.66
2019-02-19T10:47:54.307Z,95537.52
2019-02-19T10:50:23.992Z,95537.33
2019-02-19T10:52:53.771Z,95532.02
2019-02-19T10:55:23.463Z,95532.03
2019-02-19T10:57:53.056Z,95526.83
2019-02-19T11:00:22.967Z,95522.73
2019-02-19T11:02:52.559Z,95519.86
2019-02-19T11:05:22.529Z,95516.92
2019-02-19T11:07:52.369Z,95511.04
2019-02-19T11:10:21.995Z,95505.31
2019-02-19T11:12:51.620Z,95502.27
2019-02-19T11:15:21.246Z,95495.16
2019-02-19T11:17:50.758Z,95494.94
2019-02-19T11:20:20.393Z,95492.92
2019-02-19T11:22:50.095Z,95486.72
2019-02-19T11:25:19.644Z,95484.16
2019-02-19T11:27:49.379Z,95486.04
2019-02-19T11:30:20.429Z,95476.36
2019-02-19T11:32:50.377Z,95470.47
2019-02-19T11:35:20.027Z,95470.92
2019-02-19T11:37:49.549Z,95465.72
2019-02-19T11:40:19.255Z,95464.63
2019-02-19T11:42:48.910Z,95457.36
2019-02-19T11:45:18.631Z,95456.97
2019-02-19T11:47:48.360Z,95447.17
2019-02-19T11:50:18.230Z,95444.98
2019-02-19T11:52:47.746Z,95445.75
2019-02-19T11:55:17.459Z,95439.45
2019-02-19T11:57:47.212Z,95420.16
2019-02-19T12:00:20.156Z,95428.48
2019-02-19T12:02:49.950Z,95417.72
2019-02-19T12:05:19.644Z,95419.19
2019-02-19T12:07:49.246Z,95414.88
2019-02-19T12:10:18.870Z,95410.77
2019-02-19T12:12:48.523Z,95410.54
2019-02-19T12:15:19.262Z,95406.24
2019-02-19T12:17:49.088Z,95408.41
2019-02-19T12:20:18.744Z,95402.61
2019-02-19T12:22:48.489Z,95393.64
2019-02-19T12:25:18.064Z,95390.27
2019-02-19T12:27:47.744Z,95382.61
2019-02-19T12:30:17.271Z,95383.51
2019-02-19T12:32:46.892Z,95378.05
2019-02-19T12:35:16.648Z,95376.75
2019-02-19T12:37:46.340Z,95376.25
2019-02-19T12:40:16.164Z,95371.48
2019-02-19T12:42:45.889Z,95365.38
2019-02-19T12:45:15.422Z,95362.73
2019-02-19T12:47:45.005Z,95357.39
2019-02-19T12:50:14.731Z,95358.36
2019-02-19T12:52:44.178Z,95365.06
2019-02-19T12:55:13.814Z,95358.36
2019-02-19T12:57:43.438Z,95360.79
2019-02-19T13:00:14.755Z,95357.53
2019-02-19T13:02:44.418Z,95351.79
2019-02-19T13:05:14.458Z,95348.09
2019-02-19T13:07:44.240Z,95343.34
2019-02-19T13:10:13.879Z,95336.97
2019-02-19T13:12:43.568Z,95335.77
2019-02-19T13:15:14.249Z,95336.45
2019-02-19T13:17:44.027Z,95328.45
2019-02-19T13:20:14.509Z,95335.78
2019-02-19T13:22:44.292Z,95334.65
2019-02-19T13:25:14.068Z,95328.15
2019-02-19T13:27:43.538Z,95329.73
2019-02-19T13:30:14.844Z,95327.02
2019-02-19T13:32:44.627Z,95325.25
2019-02-19T13:35:14.529Z,95321.77
2019-02-19T13:37:44.242Z,95321.80
2019-02-19T13:40:14.202Z,95323.14
2019-02-19T13:42:44.050Z,95321.44
2019-02-19T13:45:14.003Z,95321.88
2019-02-19T13:47:43.763Z,95318.74
2019-02-19T13:50:15.841Z,95321.36
2019-02-19T13:53:13.583Z,95314.77
2019-02-19T13:55:46.460Z,95319.54
2019-02-19T13:58:16.107Z,95316.57
2019-02-19T14:00:47.419Z,95315.47
2019-02-19T14:03:16.949Z,95318.77
2019-02-19T14:05:46.744Z,95317.23
2019-02-19T14:08:16.529Z,95312.60
2019-02-19T14:10:46.138Z,95315.22
2019-02-19T14:13:15.925Z,95306.00
2019-02-19T14:16:10.297Z,95307.13
2019-02-19T14:18:54.610Z,95304.78
2019-02-19T14:21:43.249Z,95302.69
2019-02-19T14:24:35.163Z,95305.06
2019-02-19T14:27:42.340Z,95301.56
2019-02-19T14:30:26.872Z,95302.40
2019-02-19T14:33:21.285Z,95300.91
2019-02-19T14:36:18.743Z,95290.85
2019-02-19T14:39:05.877Z,95294.46
2019-02-19T14:41:53.191Z,95290.77
2019-02-19T14:44:38.106Z,95286.56
2019-02-19T14:47:25.462Z,95288.52
2019-02-19T14:50:12.892Z,95289.04
2019-02-19T14:53:00.165Z,95287.77
2019-02-19T14:55:57.513Z,95284.16
2019-02-19T14:58:57.506Z,95285.11
2019-02-19T15:02:01.380Z,95285.16
2019-02-19T15:04:52.955Z,95280.38
2019-02-19T15:07:40.191Z,95280.62
2019-02-19T15:10:31.888Z,95282.39
2019-02-19T15:13:32.388Z,95286.03
2019-02-19T15:16:30.159Z,95282.02
2019-02-19T15:19:39.177Z,95278.52
2019-02-19T15:22:27.736Z,95279.55
2019-02-19T15:25:22.091Z,95279.77
2019-02-19T15:28:09.377Z,95280.22
2019-02-19T15:30:52.977Z,95282.45
2019-02-19T15:33:40.141Z,95281.83
2019-02-19T15:36:23.121Z,95282.61
2019-02-19T15:39:11.728Z,95273.58
2019-02-19T15:42:00.476Z,95277.05
2019-02-19T15:45:04.163Z,95282.95
2019-02-19T15:47:51.570Z,95279.30
2019-02-19T15:50:39.071Z,95279.75
2019-02-19T15:53:30.495Z,95275.08
2019-02-19T15:56:18.001Z,95281.53
2019-02-19T15:59:09.475Z,95279.47
2019-02-19T16:01:57.050Z,95281.70
2019-02-19T16:04:39.628Z,95286.94
2019-02-19T16:07:22.499Z,95287.27
2019-02-19T16:10:19.335Z,95284.73
2019-02-19T16:12:57.179Z,95291.67
2019-02-19T16:15:48.804Z,95298.20
2019-02-19T16:18:43.575Z,95297.68
2019-02-19T16:21:35.289Z,95300.17
2019-02-19T16:24:29.769Z,95297.52
2019-02-19T16:27:15.321Z,95304.58
2019-02-19T16:30:13.168Z,95303.50
2019-02-19T16:32:49.961Z,95304.83
2019-02-19T16:35:38.347Z,95296.84
2019-02-19T16:38:29.835Z,95299.94
2019-02-19T16:41:21.300Z,95300.39
2019-02-19T16:44:28.034Z,95303.88
2019-02-19T16:47:16.511Z,95308.20
2019-02-19T16:50:17.199Z,95310.12
2019-02-19T16:53:11.642Z,95306.30
2019-02-19T16:55:59.177Z,95307.30
2019-02-19T16:58:46.795Z,95313.94
2019-02-19T17:01:38.570Z,95312.92
2019-02-19T17:04:36.471Z,95315.08
2019-02-19T17:07:25.163Z,95314.05
2019-02-19T17:10:02.647Z,95309.50
2019-02-19T17:12:40.353Z,95310.06
2019-02-19T17:15:38.041Z,95309.77
2019-02-19T17:18:35.681Z,95305.22
2019-02-19T17:21:24.379Z,95311.84
2019-02-19T17:24:06.777Z,95309.95
2019-02-19T17:26:52.662Z,95312.05
2019-02-19T17:29:50.159Z,95315.00
2019-02-19T17:32:36.957Z,95315.14
2019-02-19T17:35:15.295Z,95313.48
2019-02-19T17:37:58.337Z,95314.41
2019-02-19T17:40:36.858Z,95318.59
2019-02-19T17:43:28.443Z,95320.78
2019-02-19T17:46:08.394Z,95313.48
2019-02-19T17:48:50.924Z,95321.20
2019-02-19T17:51:28.042Z,95324.65
2019-02-19T17:54:09.450Z,95325.50
2019-02-19T17:57:01.789Z,95321.31
2019-02-19T17:59:50.263Z,95327.47
2019-02-19T18:02:38.823Z,95324.41
2019-02-19T18:05:26.515Z,95326.42
2019-02-19T18:08:21.146Z,95328.27
2019-02-19T18:11:09.708Z,95322.82
2019-02-19T18:14:04.468Z,95320.27
2019-02-19T18:16:59.900Z,95328.16
2019-02-19T18:19:30.227Z,95327.38
2019-02-19T18:21:59.864Z,95323.91
2019-02-19T18:24:32.686Z,95322.42
2019-02-19T18:27:02.486Z,95319.63
2019-02-19T18:29:33.663Z,95323.26
2019-02-19T18:32:06.808Z,95319.90
2019-02-19T18:34:36.682Z,95321.30
2019-02-19T18:37:06.267Z,95331.41
2019-02-19T18:39:36.025Z,95330.84
2019-02-19T18:42:05.809Z,95324.66
2019-02-19T18:44:35.532Z,95329.84
2019-02-19T18:47:05.332Z,95329.48
2019-02-19T18:49:34.990Z,95328.70
2019-02-19T18:52:05.568Z,95325.81
2019-02-19T18:54:36.891Z,95331.09
2019-02-19T18:57:09.809Z,95332.41
2019-02-19T18:59:43.147Z,95334.41
2019-02-19T19:02:12.822Z,95328.64
2019-02-19T19:04:42.785Z,95336.94
2019-02-19T19:07:12.402Z,95341.45
2019-02-19T19:09:42.046Z,95337.97
2019-02-19T19:12:11.757Z,95341.56
2019-02-19T19:14:41.647Z,95348.05
2019-02-19T19:17:11.143Z,95353.43
2019-02-19T19:19:40.806Z,95350.66
2019-02-19T19:22:10.690Z,95354.83
2019-02-19T19:24:40.482Z,95352.84
2019-02-19T19:27:10.176Z,95345.95
2019-02-19T19:29:39.895Z,95356.12
2019-02-19T19:32:09.719Z,95360.50
2019-02-19T19:34:39.471Z,95361.80
2019-02-19T19:37:09.260Z,95360.25
2019-02-19T19:39:38.977Z,95361.95
2019-02-19T19:42:08.730Z,95367.82
2019-02-19T19:44:38.452Z,95372.01
2019-02-19T19:47:08.265Z,95369.60
2019-02-19T19:49:37.905Z,95370.97
2019-02-19T19:52:07.840Z,95364.11
2019-02-19T19:54:37.467Z,95363.99
2019-02-19T19:57:07.130Z,95368.84
2019-02-19T19:59:36.976Z,95360.88
2019-02-19T20:02:06.744Z,95367.35
2019-02-19T20:04:36.453Z,95369.70
2019-02-19T20:07:06.095Z,95367.91
2019-02-19T20:09:35.687Z,95370.59
2019-02-19T20:12:05.385Z,95371.44
2019-02-19T20:14:35.333Z,95371.03
2019-02-19T20:17:05.072Z,95371.13
2019-02-19T20:19:34.808Z,95372.22
2019-02-19T20:22:04.787Z,95374.47
2019-02-19T20:24:34.377Z,95369.86
2019-02-19T20:27:04.279Z,95377.16
2019-02-19T20:29:33.911Z,95376.64
2019-02-19T20:32:03.566Z,95379.59
2019-02-19T20:34:33.195Z,95381.07
2019-02-19T20:37:02.928Z,95375.44
2019-02-19T20:39:32.700Z,95379.31
2019-02-19T20:42:02.447Z,95385.46
2019-02-19T20:44:32.023Z,95376.23
2019-02-19T20:47:01.644Z,95371.16
2019-02-19T20:49:31.251Z,95376.11
2019-02-19T20:52:00.872Z,95371.59
2019-02-19T20:54:30.509Z,95375.95
2019-02-19T20:56:59.971Z,95373.61
2019-02-19T20:59:29.762Z,95367.21
2019-02-19T21:01:59.268Z,95366.35
2019-02-19T21:04:28.945Z,95369.67
2019-02-19T21:06:58.723Z,95365.22
2019-02-19T21:09:30.397Z,95374.45
2019-02-19T21:11:59.927Z,95365.72
2019-02-19T21:14:29.505Z,95362.02
2019-02-19T21:16:59.308Z,95358.69
2019-02-19T21:19:29.070Z,95358.69
2019-02-19T21:21:58.523Z,95363.59
2019-02-19T21:24:28.121Z,95360.70
2019-02-19T21:26:57.857Z,95360.70
2019-02-19T21:29:27.488Z,95363.14
2019-02-19T21:31:57.069Z,95363.14
2019-02-19T21:34:26.739Z,95359.86
2019-02-19T21:36:56.387Z,95362.92
2019-02-19T21:39:25.988Z,95362.92
2019-02-19T21:41:55.518Z,95364.94
2019-02-19T21:44:25.238Z,95365.20
2019-02-19T21:46:55.025Z,95372.61
2019-02-19T21:49:24.906Z,95363.58
2019-02-19T21:51:54.575Z,95376.92
2019-02-19T21:54:24.256Z,95376.92
2019-02-19T21:56:53.849Z,95369.36
2019-02-19T21:59:23.459Z,95378.70
2019-02-19T22:01:53.148Z,95361.52
2019-02-19T22:04:22.897Z,95376.81
2019-02-19T22:06:52.616Z,95378.70
2019-02-19T22:09:22.303Z,95378.11
2019-02-19T22:11:51.888Z,95382.32
2019-02-19T22:14:21.512Z,95381.18
2019-02-19T22:16:51.130Z,95382.49
2019-02-19T22:19:21.015Z,95384.35
2019-02-19T22:22:03.419Z,95382.63
2019-02-19T22:24:37.165Z,95385.64
2019-02-19T22:27:07.967Z,95379.97
2019-02-19T22:29:37.694Z,95379.75
2019-02-19T22:32:08.276Z,95387.39
2019-02-19T22:34:37.991Z,95381.22
2019-02-19T22:37:07.727Z,95386.58
2019-02-19T22:39:37.544Z,95385.72
2019-02-19T22:42:07.139Z,95392.14
2019-02-19T22:44:36.597Z,95390.92
2019-02-19T22:47:06.331Z,95390.38
2019-02-19T22:49:35.994Z,95392.52
2019-02-19T22:52:12.313Z,95385.97
2019-02-19T22:54:47.264Z,95386.45
2019-02-19T22:57:17.363Z,95386.86
2019-02-19T22:59:46.973Z,95380.97
2019-02-19T23:02:22.519Z,95388.27
2019-02-19T23:04:52.126Z,95387.09
2019-02-19T23:07:21.813Z,95381.95
2019-02-19T23:09:51.387Z,95383.55
2019-02-19T23:12:21.097Z,95386.77
2019-02-19T23:14:50.791Z,95394.52
2019-02-19T23:17:20.548Z,95394.52
2019-02-19T23:19:50.229Z,95387.27
2019-02-19T23:22:21.828Z,95387.27
2019-02-19T23:24:51.384Z,95395.41
2019-02-19T23:27:21.061Z,95394.23
2019-02-19T23:29:50.828Z,95393.23
2019-02-19T23:32:20.538Z,95396.98
2019-02-19T23:35:09.061Z,95395.74
2019-02-19T23:37:38.942Z,95402.86
2019-02-19T23:40:08.666Z,95398.80
2019-02-19T23:42:38.241Z,95394.14
2019-02-19T23:45:07.896Z,95402.93
2019-02-19T23:47:37.468Z,95398.26
2019-02-19T23:50:07.464Z,95411.71
2019-02-19T23:52:37.129Z,95412.47
2019-02-19T23:55:07.038Z,95414.98
2019-02-19T23:57:36.701Z,95417.56
